Time;durP1;ratioP1;P1;durP2;ratioP2;P2;SDS_P1;SDS_P2;PMS_P1;PMS_P2;Temp;Humidity;BMP_temperature;BMP_pressure;BME280_temperature;BME280_humidity;BME280_pressure;Samples;Min_cycle;Max_cycle;Signal;HPM_P1;HPM_P2
2021/12/05 00:24:15;;;;;;;;;;;4.30;99.90;;;;;;4981828;28;19925;-91
2021/12/05 00:26:50;;;;;;;;;;;4.30;99.90;;;;;;4979597;28;20016;-91
2021/12/05 00:29:30;;;;;;;;;;;4.40;99.90;;;;;;4979697;28;19930;-90
2021/12/05 00:32:48;;;;;;;;;;;4.40;99.90;;;;;;4980014;28;19929;-91
2021/12/05 00:47:57;;;;;;;;;;;4.30;99.90;;;;;;4979054;28;19925;-92
2021/12/05 00:59:08;;;;;;;;;;;4.30;99.90;;;;;;4980930;28;19933;-89
2021/12/05 01:10:02;;;;;;;;;;;4.10;99.90;;;;;;4994950;28;19933;-90
2021/12/05 01:12:45;;;;;;;;;;;4.10;99.90;;;;;;4980580;28;19926;-91
2021/12/05 01:15:17;;;;;;;;;;;4.10;99.90;;;;;;4964618;28;19926;-91
2021/12/05 01:20:22;;;;;;;;;;;4.00;99.90;;;;;;4978480;28;20020;-91
2021/12/05 01:23:00;;;;;;;;;;;3.90;99.90;;;;;;4977987;28;20017;-91
2021/12/05 01:25:44;;;;;;;;;;;4.00;99.90;;;;;;4979429;28;19971;-91
2021/12/05 01:36:22;;;;;;;;;;;4.10;99.90;;;;;;4980879;28;19976;-90
2021/12/05 02:15:21;;;;;;;;;;;4.30;99.90;;;;;;4942587;28;19933;-91
2021/12/05 02:34:02;;;;;;;;;;;4.30;99.90;;;;;;4976837;28;19977;-91
2021/12/05 02:41:46;;;;;;;;;;;4.30;99.90;;;;;;4976849;28;20365;-91
2021/12/05 02:44:21;;;;;;;;;;;4.40;99.90;;;;;;4978422;28;19972;-91
2021/12/05 02:46:50;;;;;;;;;;;4.40;99.90;;;;;;4961373;28;20343;-91
2021/12/05 02:49:16;;;;;;;;;;;4.40;99.90;;;;;;4961179;28;19980;-91
2021/12/05 02:51:50;;;;;;;;;;;4.40;99.90;;;;;;4976798;28;20024;-92
2021/12/05 02:54:17;;;;;;;;;;;4.40;99.90;;;;;;4962222;28;20016;-92
2021/12/05 02:56:49;;;;;;;;;;;4.40;99.90;;;;;;4976793;28;19972;-91
2021/12/05 02:59:27;;;;;;;;;;;4.40;99.90;;;;;;4977783;28;19953;-91
2021/12/05 03:02:01;;;;;;;;;;;4.50;99.90;;;;;;4962757;28;20021;-92
2021/12/05 03:04:31;;;;;;;;;;;4.50;99.90;;;;;;4977802;28;19926;-91
2021/12/05 03:06:57;;;;;;;;;;;4.50;99.90;;;;;;4961415;28;19972;-91
2021/12/05 03:09:23;;;;;;;;;;;4.40;99.90;;;;;;4976732;28;20017;-91
2021/12/05 03:11:49;;;;;;;;;;;4.50;99.90;;;;;;4976422;28;20376;-91
2021/12/05 03:14:14;;;;;;;;;;;4.50;99.90;;;;;;4977009;28;19926;-92
2021/12/05 03:16:41;;;;;;;;;;;4.50;99.90;;;;;;4976395;28;19933;-91
2021/12/05 03:19:07;;;;;;;;;;;4.50;99.90;;;;;;4977137;28;19926;-91
2021/12/05 03:21:35;;;;;;;;;;;4.50;99.90;;;;;;4976412;28;19934;-91
2021/12/05 03:24:01;;;;;;;;;;;4.50;99.90;;;;;;4992986;28;19926;-91
2021/12/05 03:26:27;;;;;;;;;;;4.50;99.90;;;;;;4976571;28;20024;-91
2021/12/05 03:28:57;;;;;;;;;;;4.50;99.90;;;;;;4977172;28;19932;-91
2021/12/05 03:31:23;;;;;;;;;;;4.40;99.90;;;;;;4960264;28;19926;-91
2021/12/05 03:33:49;;;;;;;;;;;4.50;99.90;;;;;;4976145;28;19929;-90
2021/12/05 03:36:17;;;;;;;;;;;4.50;99.90;;;;;;4976195;28;19976;-91
2021/12/05 03:38:42;;;;;;;;;;;4.40;99.90;;;;;;4960618;28;19926;-92
2021/12/05 03:41:10;;;;;;;;;;;4.50;99.90;;;;;;4977615;28;19930;-91
2021/12/05 03:43:48;;;;;;;;;;;;;;;;;;;;;
2021/12/05 03:46:17;;;;;;;;;;;4.30;99.90;;;;;;4981233;28;19926;-91
2021/12/05 03:48:49;;;;;;;;;;;4.40;99.90;;;;;;4995905;28;20259;-91
2021/12/05 03:51:20;;;;;;;;;;;4.50;99.90;;;;;;4964577;28;20433;-91
2021/12/05 03:53:48;;;;;;;;;;;4.40;99.90;;;;;;4964111;28;20366;-91
2021/12/05 03:56:29;;;;;;;;;;;4.40;99.90;;;;;;4963766;28;19933;-91
2021/12/05 03:58:57;;;;;;;;;;;4.40;99.90;;;;;;4964510;28;19969;-92
2021/12/05 04:01:44;;;;;;;;;;;4.40;99.90;;;;;;4995983;28;19933;-91
2021/12/05 04:04:19;;;;;;;;;;;4.40;99.90;;;;;;4965929;28;19933;-91
2021/12/05 04:06:47;;;;;;;;;;;4.40;99.90;;;;;;4964604;28;20349;-91
2021/12/05 04:09:15;;;;;;;;;;;4.40;99.90;;;;;;4963726;28;20383;-91
2021/12/05 04:11:47;;;;;;;;;;;4.40;99.90;;;;;;4963603;28;19926;-91
2021/12/05 04:14:17;;;;;;;;;;;4.40;99.90;;;;;;4980158;28;19976;-90
2021/12/05 04:16:50;;;;;;;;;;;4.40;99.90;;;;;;4963562;28;19933;-91
2021/12/05 04:19:16;;;;;;;;;;;4.40;99.90;;;;;;4964518;28;19933;-90
2021/12/05 04:21:41;;;;;;;;;;;4.40;99.90;;;;;;4979390;28;19926;-92
2021/12/05 04:24:10;;;;;;;;;;;4.30;99.90;;;;;;4979704;28;20024;-91
2021/12/05 04:26:38;;;;;;;;;;;4.30;99.90;;;;;;4963525;28;19925;-91
2021/12/05 04:29:06;;;;;;;;;;;4.30;99.90;;;;;;4979493;28;19925;-91
2021/12/05 04:31:35;;;;;;;;;;;4.30;99.90;;;;;;4995675;28;19925;-91
2021/12/05 04:34:03;;;;;;;;;;;4.30;99.90;;;;;;4978751;28;19980;-91
2021/12/05 04:36:31;;;;;;;;;;;4.30;99.90;;;;;;4963607;28;19929;-92
2021/12/05 04:38:59;;;;;;;;;;;4.30;99.90;;;;;;4979759;28;19933;-91
2021/12/05 04:41:28;;;;;;;;;;;4.30;99.90;;;;;;4978760;28;19926;-91
2021/12/05 04:44:19;;;;;;;;;;;4.20;99.90;;;;;;4995253;28;20400;-91
2021/12/05 04:46:47;;;;;;;;;;;4.20;99.90;;;;;;4963574;28;19957;-91
2021/12/05 04:52:09;;;;;;;;;;;4.20;99.90;;;;;;4971286;28;20016;-92
2021/12/05 04:54:40;;;;;;;;;;;4.20;99.90;;;;;;4963460;28;19979;-91
2021/12/05 04:57:13;;;;;;;;;;;4.10;99.90;;;;;;4963341;28;19925;-91
2021/12/05 04:59:48;;;;;;;;;;;4.10;99.90;;;;;;4979913;28;19933;-92
2021/12/05 05:02:37;;;;;;;;;;;4.10;99.90;;;;;;4964039;28;19985;-91
2021/12/05 05:05:02;;;;;;;;;;;4.10;99.90;;;;;;4980193;28;19933;-91
2021/12/05 05:07:30;;;;;;;;;;;4.10;99.90;;;;;;4978909;28;19930;-92
2021/12/05 05:09:57;;;;;;;;;;;4.00;99.90;;;;;;4978250;28;19926;-91
2021/12/05 05:12:30;;;;;;;;;;;4.00;99.90;;;;;;4978796;28;19933;-91
2021/12/05 05:15:05;;;;;;;;;;;4.00;99.90;;;;;;4979804;28;19977;-93
2021/12/05 05:17:51;;;;;;;;;;;4.00;99.90;;;;;;4978779;28;19940;-91
2021/12/05 05:20:49;;;;;;;;;;;;;;;;;;;;;
2021/12/05 05:23:32;;;;;;;;;;;3.90;99.90;;;;;;4994395;28;20277;-90
2021/12/05 05:29:12;;;;;;;;;;;3.90;99.90;;;;;;4980414;28;19933;-90
2021/12/05 05:40:12;;;;;;;;;;;3.80;99.90;;;;;;4980064;28;19930;-90
2021/12/05 05:48:16;;;;;;;;;;;3.70;99.90;;;;;;4994041;28;20389;-92
2021/12/05 05:50:56;;;;;;;;;;;3.70;99.90;;;;;;4981208;28;19926;-91
2021/12/05 05:53:39;;;;;;;;;;;3.70;99.90;;;;;;4980173;28;20125;-90
2021/12/05 05:56:26;;;;;;;;;;;3.70;99.90;;;;;;4979507;28;19936;-90
2021/12/05 05:59:11;;;;;;;;;;;3.70;99.90;;;;;;4993866;28;20025;-91
2021/12/05 06:03:20;;;;;;;;;;;3.60;99.90;;;;;;4965264;28;19933;-91
2021/12/05 06:04:57;;;;;;;;;;;3.70;99.90;;;;;;4973331;28;19937;-91
2021/12/05 06:07:40;;;;;;;;;;;;;;;;;;;;;
2021/12/05 06:10:09;;;;;;;;;;;3.60;99.90;;;;;;4978952;28;19933;-92
2021/12/05 06:12:35;;;;;;;;;;;3.50;99.90;;;;;;4978059;28;20016;-92
2021/12/05 06:15:09;;;;;;;;;;;3.60;99.90;;;;;;4977373;28;19925;-90
2021/12/05 06:18:05;;;;;;;;;;;;;;;;;;;;;
2021/12/05 06:20:44;;;;;;;;;;;3.50;99.90;;;;;;4990806;28;19976;-90
2021/12/05 06:23:10;;;;;;;;;;;3.50;99.90;;;;;;4962652;28;20025;-92
2021/12/05 06:26:06;;;;;;;;;;;3.50;99.90;;;;;;4962439;28;19968;-92
2021/12/05 06:29:01;;;;;;;;;;;3.50;99.90;;;;;;4994035;28;19926;-92
2021/12/05 06:32:30;;;;;;;;;;;;;;;;;;;;;
2021/12/05 06:37:31;;;;;;;;;;;3.50;99.90;;;;;;4979437;28;20338;-90
2021/12/05 06:48:49;;;;;;;;;;;3.50;99.90;;;;;;4922710;29;19927;-91
2021/12/05 06:51:24;;;;;;;;;;;3.50;99.90;;;;;;4918204;29;19927;-91
2021/12/05 06:53:52;;;;;;;;;;;3.50;99.90;;;;;;4919094;29;20311;-93
2021/12/05 06:56:28;;;;;;;;;;;3.50;99.90;;;;;;4973090;28;19930;-91
2021/12/05 06:59:15;;;;;;;;;;;;;;;;;;;;;
2021/12/05 07:02:29;;;;;;;;;;;3.50;99.90;;;;;;4978493;28;19932;-91
2021/12/05 07:05:32;;;;;;;;;;;3.50;99.90;;;;;;4992445;28;19976;-90
2021/12/05 07:08:13;;;;;;;;;;;;;;;;;;;;;
2021/12/05 07:14:32;;;;;;;;;;;3.50;99.90;;;;;;4985379;28;19926;-91
2021/12/05 07:25:40;;;;;;;;;;;;;;;;;;;;;
2021/12/05 07:48:07;;;;;;;;;;;;;;;;;;;;;
2021/12/05 07:54:05;;;;;;;;;;;3.70;99.90;;;;;;4984849;28;20457;-92
2021/12/05 07:56:53;;;;;;;;;;;3.70;99.90;;;;;;4965362;28;19972;-91
2021/12/05 07:59:39;;;;;;;;;;;3.70;99.90;;;;;;4982959;28;19949;-89
2021/12/05 08:16:56;;;;;;;;;;;3.80;99.90;;;;;;4982518;28;19949;-92
2021/12/05 08:19:36;;;;;;;;;;;3.80;99.90;;;;;;4979341;28;19949;-91
2021/12/05 08:22:04;;;;;;;;;;;3.70;99.90;;;;;;4980104;28;19949;-91
2021/12/05 08:24:57;;;;;;;;;;;3.80;99.90;;;;;;4979949;28;19932;-92
2021/12/05 08:27:23;;;;;;;;;;;3.80;99.90;;;;;;4981277;28;19925;-93
2021/12/05 08:29:57;;;;;;;;;;;3.80;99.90;;;;;;4963715;28;19926;-92
2021/12/05 08:32:34;;;;;;;;;;;3.80;99.90;;;;;;4963785;28;19988;-92
2021/12/05 09:21:17;;;;;;;;;;;;;;;;;;;;;
2021/12/05 09:53:28;;;;;;;;;;;4.50;99.90;;;;;;4979923;28;20009;-92
2021/12/05 10:26:06;;;;;;;;;;;4.70;99.90;;;;;;4971801;28;19926;-89
2021/12/05 10:26:39;;;;;;;;;;;4.70;99.90;;;;;;4992679;28;20365;-88
2021/12/05 10:38:01;;;;;;;;;;;4.60;99.90;;;;;;4992406;28;20087;-88
2021/12/05 10:40:35;;;;;;;;;;;4.70;99.90;;;;;;4962965;28;19977;-88
2021/12/05 10:43:01;;;;;;;;;;;4.70;99.90;;;;;;4977546;28;20318;-88
2021/12/05 10:45:38;;;;;;;;;;;4.60;99.90;;;;;;4992516;28;20449;-88
2021/12/05 10:48:12;;;;;;;;;;;4.70;99.90;;;;;;4960408;28;19926;-89
2021/12/05 10:50:41;;;;;;;;;;;4.70;99.90;;;;;;4964647;28;19929;-88
2021/12/05 10:53:19;;;;;;;;;;;4.70;99.90;;;;;;4982426;28;20016;-89
2021/12/05 10:55:44;;;;;;;;;;;4.70;99.90;;;;;;4982622;28;19930;-88
2021/12/05 10:58:23;;;;;;;;;;;;;;;;;;;;;
2021/12/05 11:00:51;;;;;;;;;;;4.70;99.90;;;;;;4984308;28;19925;-86
2021/12/05 11:03:20;;;;;;;;;;;4.70;99.90;;;;;;4982724;28;19929;-86
2021/12/05 11:05:58;;;;;;;;;;;4.80;99.90;;;;;;4982730;28;19926;-86
2021/12/05 11:08:46;;;;;;;;;;;4.70;99.90;;;;;;4967971;28;19934;-87
2021/12/05 11:11:23;;;;;;;;;;;4.70;99.90;;;;;;4966965;28;19983;-86
2021/12/05 11:13:51;;;;;;;;;;;4.70;99.90;;;;;;4983668;28;19976;-86
2021/12/05 11:17:18;;;;;;;;;;;4.70;99.90;;;;;;4982815;28;19930;-86
2021/12/05 11:20:03;;;;;;;;;;;4.70;99.90;;;;;;4973265;28;19925;-89
2021/12/05 11:22:36;;;;;;;;;;;4.70;99.90;;;;;;4998426;28;19930;-89
2021/12/05 11:25:09;;;;;;;;;;;4.70;99.90;;;;;;4983208;28;20016;-88
2021/12/05 11:27:43;;;;;;;;;;;4.70;99.90;;;;;;4998845;28;19948;-87
2021/12/05 11:30:13;;;;;;;;;;;4.60;99.90;;;;;;4967746;28;19973;-86
2021/12/05 11:33:08;;;;;;;;;;;4.80;99.90;;;;;;5001217;28;19926;-88
2021/12/05 11:36:21;;;;;;;;;;;4.70;99.90;;;;;;4984950;28;19926;-89
2021/12/05 11:45:17;;;;;;;;;;;4.70;99.90;;;;;;4981495;28;19925;-88
2021/12/05 11:48:42;;;;;;;;;;;;;;;;;;;;;
2021/12/05 11:51:28;;;;;;;;;;;;;;;;;;;;;
2021/12/05 11:57:35;;;;;;;;;;;4.70;99.90;;;;;;4993655;28;19984;-90
2021/12/05 12:04:25;;;;;;;;;;;;;;;;;;;;;
2021/12/05 12:16:35;;;;;;;;;;;;;;;;;;;;;
2021/12/05 12:19:02;;;;;;;;;;;4.90;99.90;;;;;;4925158;29;19927;-91
2021/12/05 12:21:35;;;;;;;;;;;4.90;99.90;;;;;;4923039;29;20374;-90
2021/12/05 12:24:01;;;;;;;;;;;4.90;99.90;;;;;;4959706;28;19926;-90
2021/12/05 12:26:30;;;;;;;;;;;5.00;99.90;;;;;;4963376;28;19932;-90
2021/12/05 12:29:03;;;;;;;;;;;4.90;99.90;;;;;;4978342;28;20285;-91
2021/12/05 12:31:41;;;;;;;;;;;5.00;99.90;;;;;;4965104;28;19933;-91
2021/12/05 12:34:18;;;;;;;;;;;5.00;99.90;;;;;;4978334;28;19930;-95
2021/12/05 12:36:49;;;;;;;;;;;5.10;99.90;;;;;;4979356;28;19932;-94
2021/12/05 12:39:30;;;;;;;;;;;5.10;99.90;;;;;;4979842;28;20374;-93
2021/12/05 12:42:09;;;;;;;;;;;5.10;99.90;;;;;;4994685;28;19930;-92
2021/12/05 12:44:48;;;;;;;;;;;5.10;99.90;;;;;;4963475;28;19984;-92
2021/12/05 12:47:36;;;;;;;;;;;5.20;99.90;;;;;;4966286;28;20382;-96
2021/12/05 12:50:34;;;;;;;;;;;5.20;99.90;;;;;;4967356;28;19930;-94
2021/12/05 12:53:12;;;;;;;;;;;5.20;99.90;;;;;;4991780;28;19932;-92
2021/12/05 12:55:49;;;;;;;;;;;5.20;99.90;;;;;;4994754;28;19933;-91
2021/12/05 12:58:15;;;;;;;;;;;5.30;99.90;;;;;;4995468;28;19932;-90
2021/12/05 13:00:46;;;;;;;;;;;5.30;99.90;;;;;;4961775;28;19979;-93
2021/12/05 13:03:25;;;;;;;;;;;5.30;99.90;;;;;;4978670;28;19926;-94
2021/12/05 13:07:20;;;;;;;;;;;5.30;99.90;;;;;;4979494;28;20374;-92
2021/12/05 13:11:48;;;;;;;;;;;5.40;99.90;;;;;;4981571;28;19929;-94
2021/12/05 13:14:55;;;;;;;;;;;5.40;99.90;;;;;;4963145;28;19926;-94
2021/12/05 13:17:40;;;;;;;;;;;5.40;99.90;;;;;;4992543;28;19932;-94
2021/12/05 13:20:06;;;;;;;;;;;5.40;99.90;;;;;;4983787;28;20398;-93
2021/12/05 13:22:34;;;;;;;;;;;5.40;99.90;;;;;;4978335;28;20290;-92
2021/12/05 13:25:13;;;;;;;;;;;5.40;99.90;;;;;;4962116;28;19926;-92
2021/12/05 13:27:57;;;;;;;;;;;5.50;99.90;;;;;;4994685;28;19936;-94
2021/12/05 13:30:31;;;;;;;;;;;5.50;99.90;;;;;;4978721;28;19929;-93
2021/12/05 13:33:16;;;;;;;;;;;5.50;99.90;;;;;;4994124;28;19996;-92
2021/12/05 13:35:46;;;;;;;;;;;5.50;99.90;;;;;;4993870;28;19926;-93
2021/12/05 13:38:31;;;;;;;;;;;5.60;99.90;;;;;;4962426;28;19926;-92
2021/12/05 13:41:12;;;;;;;;;;;5.60;99.90;;;;;;4962685;28;19933;-91
2021/12/05 13:43:38;;;;;;;;;;;5.60;99.90;;;;;;4978312;28;19925;-92
2021/12/05 13:46:45;;;;;;;;;;;5.60;99.90;;;;;;4977667;28;20333;-93
2021/12/05 13:49:32;;;;;;;;;;;5.60;99.90;;;;;;4940642;29;19938;-94
2021/12/05 13:52:18;;;;;;;;;;;5.60;99.90;;;;;;4924386;29;19937;-93
2021/12/05 13:54:49;;;;;;;;;;;5.60;99.90;;;;;;4979847;28;19932;-94
2021/12/05 13:57:25;;;;;;;;;;;;;;;;;;;;;
2021/12/05 13:59:51;;;;;;;;;;;5.60;99.90;;;;;;4979228;28;19932;-93
2021/12/05 14:02:18;;;;;;;;;;;5.60;99.90;;;;;;4961475;28;19930;-93
2021/12/05 14:04:48;;;;;;;;;;;5.50;99.90;;;;;;4962008;28;19926;-93
2021/12/05 14:07:26;;;;;;;;;;;5.60;99.90;;;;;;4961558;28;20293;-94
2021/12/05 14:09:54;;;;;;;;;;;5.60;99.90;;;;;;4978561;28;19933;-94
2021/12/05 14:12:24;;;;;;;;;;;5.60;99.90;;;;;;4961842;28;19981;-95
2021/12/05 14:15:00;;;;;;;;;;;5.60;99.90;;;;;;4977787;28;20337;-93
2021/12/05 14:17:33;;;;;;;;;;;5.50;99.90;;;;;;4979016;28;19933;-93
2021/12/05 14:20:07;;;;;;;;;;;5.50;99.90;;;;;;4961356;28;19929;-92
2021/12/05 14:22:33;;;;;;;;;;;5.40;99.90;;;;;;4993501;28;20366;-94
2021/12/05 14:25:01;;;;;;;;;;;5.40;99.90;;;;;;4976613;28;19976;-94
2021/12/05 14:27:39;;;;;;;;;;;;;;;;;;;;;
2021/12/05 14:30:26;;;;;;;;;;;5.40;99.90;;;;;;4978157;28;19933;-92
2021/12/05 14:33:03;;;;;;;;;;;;;;;;;;;;;
2021/12/05 14:35:34;;;;;;;;;;;5.30;99.90;;;;;;4974416;28;19926;-93
2021/12/05 14:38:03;;;;;;;;;;;5.30;99.90;;;;;;4977170;28;19930;-91
2021/12/05 14:40:32;;;;;;;;;;;5.30;99.90;;;;;;4977646;28;20345;-92
2021/12/05 14:43:06;;;;;;;;;;;5.20;99.90;;;;;;4977002;28;20376;-91
2021/12/05 14:45:36;;;;;;;;;;;5.20;99.90;;;;;;4977108;28;19936;-92
2021/12/05 14:48:22;;;;;;;;;;;5.10;99.90;;;;;;4976678;28;19930;-92
2021/12/05 14:50:51;;;;;;;;;;;5.10;99.90;;;;;;4961407;28;20349;-92
2021/12/05 14:53:22;;;;;;;;;;;5.20;99.90;;;;;;4977193;28;19929;-93
2021/12/05 14:55:58;;;;;;;;;;;;;;;;;;;;;
2021/12/05 14:58:27;;;;;;;;;;;5.10;99.90;;;;;;4978672;28;19926;-93
2021/12/05 15:00:57;;;;;;;;;;;5.10;99.90;;;;;;4977595;28;19926;-93
2021/12/05 15:03:27;;;;;;;;;;;5.10;99.90;;;;;;4961714;28;20285;-94
2021/12/05 15:05:55;;;;;;;;;;;5.10;99.90;;;;;;4977521;28;20335;-94
2021/12/05 15:08:34;;;;;;;;;;;5.10;99.90;;;;;;4993044;28;19996;-95
2021/12/05 15:11:03;;;;;;;;;;;5.10;99.90;;;;;;4977988;28;19925;-95
2021/12/05 15:13:39;;;;;;;;;;;5.00;99.90;;;;;;4961222;28;19933;-94
2021/12/05 15:16:07;;;;;;;;;;;5.00;99.90;;;;;;4977344;28;19930;-94
2021/12/05 15:18:39;;;;;;;;;;;5.00;99.90;;;;;;4976684;28;20409;-95
2021/12/05 15:21:08;;;;;;;;;;;5.00;99.90;;;;;;4977271;28;19929;-93
2021/12/05 15:23:44;;;;;;;;;;;;;;;;;;;;;
2021/12/05 15:26:30;;;;;;;;;;;5.00;99.90;;;;;;4978071;28;19929;-95
2021/12/05 15:29:00;;;;;;;;;;;4.90;99.90;;;;;;4977470;28;20080;-93
2021/12/05 15:31:41;;;;;;;;;;;4.90;99.90;;;;;;4960916;28;19972;-94
2021/12/05 15:34:18;;;;;;;;;;;4.90;99.90;;;;;;4977666;28;19929;-95
2021/12/05 15:36:54;;;;;;;;;;;4.90;99.90;;;;;;4961775;28;20255;-94
2021/12/05 15:39:26;;;;;;;;;;;4.90;99.90;;;;;;4981406;28;20219;-94
2021/12/05 15:42:04;;;;;;;;;;;4.90;99.90;;;;;;4981029;28;19940;-94
2021/12/05 15:44:31;;;;;;;;;;;4.90;99.90;;;;;;4964267;28;19926;-94
2021/12/05 15:47:16;;;;;;;;;;;;;;;;;;;;;
2021/12/05 15:49:42;;;;;;;;;;;4.80;99.90;;;;;;4981453;28;19933;-94
2021/12/05 15:52:10;;;;;;;;;;;4.80;99.90;;;;;;4995940;28;19935;-95
2021/12/05 15:54:46;;;;;;;;;;;;;;;;;;;;;
2021/12/05 15:57:18;;;;;;;;;;;4.80;99.90;;;;;;4981227;28;19925;-94
2021/12/05 15:59:49;;;;;;;;;;;4.80;99.90;;;;;;4981062;28;20012;-94
2021/12/05 16:02:19;;;;;;;;;;;4.80;99.90;;;;;;4980615;28;19926;-95
2021/12/05 16:04:48;;;;;;;;;;;4.80;99.90;;;;;;4964876;28;20384;-95
2021/12/05 16:07:21;;;;;;;;;;;4.80;99.90;;;;;;4963822;28;19932;-95
2021/12/05 16:09:54;;;;;;;;;;;4.70;99.90;;;;;;4980704;28;20322;-95
2021/12/05 16:12:22;;;;;;;;;;;4.80;99.90;;;;;;4980833;28;19933;-94
2021/12/05 16:14:56;;;;;;;;;;;4.80;99.90;;;;;;4979896;28;20371;-95
2021/12/05 16:17:25;;;;;;;;;;;4.80;99.90;;;;;;4995898;28;19976;-95
2021/12/05 16:20:08;;;;;;;;;;;4.80;99.90;;;;;;4980286;28;19940;-95
2021/12/05 16:22:53;;;;;;;;;;;4.80;99.90;;;;;;4981003;28;20008;-93
2021/12/05 16:25:18;;;;;;;;;;;4.80;99.90;;;;;;4995624;28;19926;-94
2021/12/05 16:27:51;;;;;;;;;;;4.80;99.90;;;;;;4963447;28;20049;-93
2021/12/05 16:30:23;;;;;;;;;;;4.80;99.90;;;;;;4979317;28;19930;-95
2021/12/05 16:32:49;;;;;;;;;;;4.70;99.90;;;;;;4979466;28;19976;-94
2021/12/05 16:35:49;;;;;;;;;;;4.60;99.90;;;;;;4978356;28;19980;-93
2021/12/05 16:38:18;;;;;;;;;;;4.70;99.90;;;;;;4981322;28;19955;-92
2021/12/05 16:40:52;;;;;;;;;;;4.70;99.90;;;;;;4979934;28;19925;-96
2021/12/05 16:43:18;;;;;;;;;;;4.70;99.90;;;;;;4967272;28;19980;-91
2021/12/05 16:45:49;;;;;;;;;;;4.70;99.90;;;;;;4964137;28;19925;-88
2021/12/05 16:48:17;;;;;;;;;;;4.70;99.90;;;;;;4977865;28;19991;-88
2021/12/05 16:50:48;;;;;;;;;;;4.70;99.90;;;;;;4978458;28;19932;-88
2021/12/05 16:53:23;;;;;;;;;;;4.70;99.90;;;;;;4993966;28;20378;-88
2021/12/05 16:56:05;;;;;;;;;;;4.70;99.90;;;;;;4980279;28;19931;-90
2021/12/05 16:58:59;;;;;;;;;;;4.70;99.90;;;;;;4980796;28;19930;-95
2021/12/05 17:01:25;;;;;;;;;;;4.70;99.90;;;;;;4989660;28;19933;-86
2021/12/05 17:03:53;;;;;;;;;;;4.80;99.90;;;;;;5010332;28;20393;-87
2021/12/05 17:06:26;;;;;;;;;;;4.90;99.90;;;;;;4978000;28;19976;-92
2021/12/05 17:09:12;;;;;;;;;;;5.20;99.90;;;;;;4993966;28;20383;-86
2021/12/05 17:11:38;;;;;;;;;;;5.30;99.90;;;;;;4979552;28;20275;-88
2021/12/05 17:14:04;;;;;;;;;;;5.30;99.90;;;;;;4977787;28;19926;-86
2021/12/05 17:16:39;;;;;;;;;;;5.40;99.90;;;;;;4977796;28;19925;-86
2021/12/05 17:19:08;;;;;;;;;;;5.50;99.90;;;;;;4978452;28;20012;-86
2021/12/05 17:21:38;;;;;;;;;;;5.60;99.90;;;;;;4977720;28;19939;-88
2021/12/05 17:24:12;;;;;;;;;;;5.50;99.90;;;;;;4994057;28;20377;-87
2021/12/05 17:26:44;;;;;;;;;;;5.60;99.90;;;;;;4977843;28;19926;-86
2021/12/05 17:29:19;;;;;;;;;;;5.50;99.90;;;;;;4977773;28;19980;-86
2021/12/05 17:31:58;;;;;;;;;;;5.50;99.90;;;;;;4962564;28;19926;-86
2021/12/05 17:34:33;;;;;;;;;;;5.60;99.90;;;;;;4976826;28;19926;-87
2021/12/05 17:37:16;;;;;;;;;;;5.60;99.90;;;;;;4977956;28;19933;-88
2021/12/05 17:39:42;;;;;;;;;;;5.70;99.90;;;;;;4978507;28;19933;-87
2021/12/05 17:42:28;;;;;;;;;;;5.70;99.90;;;;;;4961507;28;19926;-88
2021/12/05 17:44:57;;;;;;;;;;;5.70;99.90;;;;;;4993645;28;19937;-87
2021/12/05 17:47:22;;;;;;;;;;;5.60;99.90;;;;;;4977137;28;19925;-88
2021/12/05 17:49:49;;;;;;;;;;;5.40;99.90;;;;;;4977159;28;20358;-88
2021/12/05 17:52:21;;;;;;;;;;;5.30;99.90;;;;;;4993454;28;19980;-87
2021/12/05 17:57:49;;;;;;;;;;;5.10;99.90;;;;;;4980279;28;20029;-86
2021/12/05 18:00:34;;;;;;;;;;;5.00;99.90;;;;;;4962179;28;19932;-88
2021/12/05 18:03:03;;;;;;;;;;;5.00;99.90;;;;;;4979330;28;19929;-88
2021/12/05 18:05:49;;;;;;;;;;;4.90;99.90;;;;;;4977985;28;20375;-88
2021/12/05 18:08:34;;;;;;;;;;;4.90;99.90;;;;;;4977711;28;19932;-87
2021/12/05 18:11:10;;;;;;;;;;;4.90;99.90;;;;;;4978481;28;20285;-88
2021/12/05 18:13:37;;;;;;;;;;;4.80;99.90;;;;;;4992814;28;19934;-89
2021/12/05 18:16:15;;;;;;;;;;;;;;;;;;;;;
2021/12/05 18:18:41;;;;;;;;;;;4.80;99.90;;;;;;4978119;28;19930;-86
2021/12/05 18:21:09;;;;;;;;;;;4.80;99.90;;;;;;4960834;28;19936;-88
2021/12/05 18:23:38;;;;;;;;;;;4.70;99.90;;;;;;4960593;28;19925;-87
2021/12/05 18:26:09;;;;;;;;;;;4.70;99.90;;;;;;4961099;28;19926;-87
2021/12/05 18:28:48;;;;;;;;;;;4.70;99.90;;;;;;4992445;28;20012;-87
2021/12/05 18:31:26;;;;;;;;;;;4.70;99.90;;;;;;4962105;28;19932;-87
2021/12/05 18:34:00;;;;;;;;;;;4.60;99.90;;;;;;4977089;28;19930;-86
2021/12/05 18:36:29;;;;;;;;;;;4.60;99.90;;;;;;5084243;23;19930;-88
2021/12/05 18:39:05;;;;;;;;;;;4.60;99.90;;;;;;4977302;28;19933;-88
2021/12/05 18:41:40;;;;;;;;;;;4.50;99.90;;;;;;4976140;28;19960;-88
2021/12/05 18:44:15;;;;;;;;;;;4.50;99.90;;;;;;4977019;28;19972;-86
2021/12/05 18:46:44;;;;;;;;;;;4.50;99.90;;;;;;4961763;28;19930;-87
2021/12/05 18:49:09;;;;;;;;;;;4.50;99.90;;;;;;4960136;28;19932;-89
2021/12/05 18:51:48;;;;;;;;;;;4.50;99.90;;;;;;4976530;28;20052;-86
2021/12/05 18:54:17;;;;;;;;;;;4.40;99.90;;;;;;4961229;28;19926;-85
2021/12/05 18:57:03;;;;;;;;;;;4.40;99.90;;;;;;4992195;28;19926;-88
2021/12/05 18:59:32;;;;;;;;;;;4.30;99.90;;;;;;4992137;28;19926;-88
2021/12/05 19:04:48;;;;;;;;;;;4.30;99.90;;;;;;4978385;28;19953;-87
2021/12/05 19:07:19;;;;;;;;;;;4.30;99.90;;;;;;4977265;28;20041;-87
2021/12/05 19:12:27;;;;;;;;;;;4.20;99.90;;;;;;4980800;28;19933;-87
2021/12/05 19:14:56;;;;;;;;;;;4.20;99.90;;;;;;4996233;28;19930;-87
2021/12/05 19:17:27;;;;;;;;;;;4.20;99.90;;;;;;4964482;28;19930;-86
2021/12/05 19:20:06;;;;;;;;;;;4.10;99.90;;;;;;4980128;28;20420;-89
2021/12/05 19:22:32;;;;;;;;;;;4.10;99.90;;;;;;4964937;28;19973;-86
2021/12/05 19:24:59;;;;;;;;;;;4.10;99.90;;;;;;4995850;28;20464;-86
2021/12/05 19:27:32;;;;;;;;;;;4.00;99.90;;;;;;4979990;28;19932;-87
2021/12/05 19:30:00;;;;;;;;;;;4.00;99.90;;;;;;4964607;28;20055;-88
2021/12/05 19:32:27;;;;;;;;;;;4.00;99.90;;;;;;4963897;28;20012;-86
2021/12/05 19:34:55;;;;;;;;;;;3.90;99.90;;;;;;4979554;28;20289;-87
2021/12/05 19:37:24;;;;;;;;;;;3.90;99.90;;;;;;4977621;28;19976;-87
2021/12/05 19:39:49;;;;;;;;;;;3.90;99.90;;;;;;4979549;28;19930;-87
2021/12/05 19:42:25;;;;;;;;;;;;;;;;;;;;;
2021/12/05 19:44:54;;;;;;;;;;;3.80;99.90;;;;;;4995634;28;20301;-86
2021/12/05 19:47:23;;;;;;;;;;;3.80;99.90;;;;;;4979907;28;19937;-86
2021/12/05 19:49:48;;;;;;;;;;;3.80;99.90;;;;;;4979238;28;20357;-86
2021/12/05 19:52:14;;;;;;;;;;;3.80;99.90;;;;;;4979402;28;20013;-86
2021/12/05 19:54:42;;;;;;;;;;;3.80;99.90;;;;;;4978993;28;20337;-86
2021/12/05 19:57:08;;;;;;;;;;;3.70;99.90;;;;;;4979640;28;19925;-86
2021/12/05 19:59:36;;;;;;;;;;;3.70;99.90;;;;;;4979097;28;20008;-87
2021/12/05 20:02:04;;;;;;;;;;;3.70;99.90;;;;;;4995655;28;19937;-88
2021/12/05 20:04:33;;;;;;;;;;;3.70;99.90;;;;;;4963570;28;19976;-86
2021/12/05 20:06:59;;;;;;;;;;;3.70;99.90;;;;;;4963094;28;20040;-86
2021/12/05 20:09:25;;;;;;;;;;;3.70;99.90;;;;;;4979012;28;20079;-86
2021/12/05 20:11:59;;;;;;;;;;;3.70;99.90;;;;;;4978950;28;19992;-87
2021/12/05 20:14:27;;;;;;;;;;;3.60;99.90;;;;;;4980347;28;19975;-87
2021/12/05 20:17:10;;;;;;;;;;;3.60;99.90;;;;;;4978953;28;19926;-87
2021/12/05 20:19:38;;;;;;;;;;;3.60;99.90;;;;;;4980770;28;20390;-87
2021/12/05 20:22:04;;;;;;;;;;;3.60;99.90;;;;;;4978753;28;19969;-86
2021/12/05 20:24:30;;;;;;;;;;;3.50;99.90;;;;;;4962926;28;19973;-86
2021/12/05 20:26:56;;;;;;;;;;;3.50;99.90;;;;;;4962596;28;20475;-86
2021/12/05 20:29:26;;;;;;;;;;;3.60;99.90;;;;;;4978572;28;19936;-86
2021/12/05 20:31:54;;;;;;;;;;;3.60;99.90;;;;;;4978760;28;19929;-85
2021/12/05 20:34:24;;;;;;;;;;;3.50;99.90;;;;;;4978705;28;20013;-86
2021/12/05 20:36:50;;;;;;;;;;;3.50;99.90;;;;;;4981572;28;20266;-92
2021/12/05 20:39:16;;;;;;;;;;;3.40;99.90;;;;;;4965894;28;19990;-87
2021/12/05 20:41:47;;;;;;;;;;;3.40;99.90;;;;;;4994165;28;19948;-90
2021/12/05 20:44:23;;;;;;;;;;;3.40;99.90;;;;;;4978291;28;20385;-88
2021/12/05 20:46:51;;;;;;;;;;;3.40;99.90;;;;;;4979393;28;19926;-89
2021/12/05 20:49:29;;;;;;;;;;;;;;;;;;;;;
2021/12/05 20:52:05;;;;;;;;;;;;;;;;;;;;;
2021/12/05 20:54:55;;;;;;;;;;;;;;;;;;;;;
2021/12/05 20:57:21;;;;;;;;;;;3.40;99.90;;;;;;4980244;28;19933;-86
2021/12/05 21:00:05;;;;;;;;;;;3.40;99.90;;;;;;4978043;28;19933;-87
2021/12/05 21:02:37;;;;;;;;;;;3.30;99.90;;;;;;4978446;28;19949;-87
2021/12/05 21:05:15;;;;;;;;;;;3.30;99.90;;;;;;4979638;28;19929;-87
2021/12/05 21:08:03;;;;;;;;;;;3.20;99.90;;;;;;4978268;28;20020;-87
2021/12/05 21:10:56;;;;;;;;;;;;;;;;;;;;;
2021/12/05 21:13:22;;;;;;;;;;;3.10;99.90;;;;;;4979574;28;19934;-89
2021/12/05 21:15:48;;;;;;;;;;;3.10;99.90;;;;;;4961699;28;19937;-88
2021/12/05 21:18:24;;;;;;;;;;;3.10;99.90;;;;;;4978034;28;19933;-90
2021/12/05 21:20:53;;;;;;;;;;;3.10;99.90;;;;;;4962832;28;19926;-88
2021/12/05 21:23:19;;;;;;;;;;;3.10;99.90;;;;;;4978276;28;20454;-88
2021/12/05 21:25:50;;;;;;;;;;;3.10;99.90;;;;;;4978330;28;19989;-92
2021/12/05 21:28:20;;;;;;;;;;;3.00;99.90;;;;;;4978222;28;19926;-88
2021/12/05 21:30:55;;;;;;;;;;;3.00;99.90;;;;;;4977557;28;20031;-88